CheckWX is a tool to help pilots better visualize weather data.  It is not intended as a substitute for an official pre-flight weather briefing.

22:57:36 UTC

GMFO TAF
Angads Airport
Oujda, Morocco
TAF GMFO 221700Z 2218/2324 36006KT 9999 FEW026 SCT090 BECMG 2310/2312 24012KT CAVOK

Jan-22@
18:00 UTC

Jan-22 @ 18:00 UTC

Jan-23@
10:00 UTC

Jan-23 @ 10:00 UTC

TAF GMFO 221700Z 2218/2324 36006KT 9999 FEW026 SCT090
Wind
  • 360° at 6 KTS
Cloud Levels
  • Few at 2,600' AGL
  • Scattered at 9,000' AGL

Jan-23@
10:00 UTC

Jan-23 @ 10:00 UTC

Jan-24@
00:00 UTC

Jan-24 @ 00:00 UTC

BECMG 2310/2312 24012KT CAVOK

Becoming

Becoming Conditions expected by Thu, Jan 23, 2020 @ 12:00 UTC

Wind
  • 240° at 12 KTS
Conditions
No significant weather
Cloud Levels
  • No significant clouds